Decoded Metar for KSUS (ST. LOUIS/SPIRIT in MO, USA) (IATA:SUS) | Meteo·Mobile Aviation Weather
aviador You're here:

KSUS Decoded Metar

ST. LOUIS/SPIRIT in MO, USA
Report Time2018-10-22 10:54:00
UTC Time2018-10-22 11:08:30
Flight Rules vfr VFR
WindCalm
Visibility9999 m
Phenomena:N/A
Clouds:N/A
Expected CloudBase > 2,800 ft AGL from Temp-Dew spread
CeilingNone
Temp07°C (ISA -7)
Dew Point00°C (61% RH)
AAT5.0°C
QNH1021 hPa
Density Alt-574 ft
Elevation463 ft
Report Wrong Elevation
Raw Report
KSUS 221054Z 00000KT 10SM CLR 07/00 A3016 RMK AO2 SLP214
T00670000=

Extra information for KSUS:More info

Metar Taf Metar & Taf Last 4 Metars F.Rules Stats Wind Profile Meteogram Temp Stats Airport Information Weather charts Add Link Nearby VenuesMetar ALERT Operation Metar Decoded Social comments

AIRNAV info for KSUS